Time;durP1;ratioP1;P1;durP2;ratioP2;P2;SDS_P1;SDS_P2;PMS_P1;PMS_P2;Temp;Humidity;BMP_temperature;BMP_pressure;BME280_temperature;BME280_humidity;BME280_pressure;Samples;Min_cycle;Max_cycle;Signal;HPM_P1;HPM_P2
2023/03/08 00:00:39;;;;;;;11.35;6.25;;;;;;;7.73;100.00;99552.75;5028480;28;20034;-73
2023/03/08 00:03:05;;;;;;;8.15;5.38;;;;;;;7.11;100.00;99506.09;5013709;28;20084;-74
2023/03/08 00:05:30;;;;;;;7.50;5.32;;;;;;;7.39;100.00;99556.94;5013120;28;20037;-74
2023/03/08 00:07:56;;;;;;;6.30;4.80;;;;;;;7.21;100.00;99552.25;5013387;28;20052;-74
2023/03/08 00:10:22;;;;;;;6.43;5.10;;;;;;;6.55;100.00;99473.63;5013416;28;20038;-74
2023/03/08 00:12:47;;;;;;;8.57;4.80;;;;;;;6.50;100.00;99500.66;5013974;28;20026;-74
2023/03/08 00:15:13;;;;;;;7.93;5.60;;;;;;;6.21;100.00;99487.75;5013282;28;20478;-73
2023/03/08 00:17:39;;;;;;;8.65;5.65;;;;;;;6.67;100.00;99554.22;5013548;28;20025;-74
2023/03/08 00:20:07;;;;;;;8.75;5.75;;;;;;;6.72;100.00;99559.97;5028880;28;20021;-74
2023/03/08 00:22:40;;;;;;;7.57;5.70;;;;;;;6.87;100.00;99559.72;5028882;28;20049;-74
2023/03/08 00:25:07;;;;;;;7.88;5.75;;;;;;;6.73;100.00;99509.47;5013276;28;20029;-74
2023/03/08 00:27:33;;;;;;;6.63;5.35;;;;;;;6.66;100.00;99568.53;5012579;28;20069;-74
2023/03/08 00:29:59;;;;;;;8.95;5.82;;;;;;;6.72;100.00;99548.19;5013050;28;20065;-74
2023/03/08 00:32:25;;;;;;;8.43;6.00;;;;;;;6.43;100.00;99494.91;5013537;28;20062;-74
2023/03/08 00:34:51;;;;;;;8.50;5.90;;;;;;;7.07;100.00;99544.97;5028497;28;20026;-74
2023/03/08 00:37:16;;;;;;;8.52;5.72;;;;;;;6.87;100.00;99560.50;5012820;28;20038;-74
2023/03/08 00:39:42;;;;;;;9.98;6.05;;;;;;;6.62;100.00;99501.25;5012998;28;20037;-74
2023/03/08 00:42:07;;;;;;;10.77;5.57;;;;;;;6.93;100.00;99549.47;5012695;28;20420;-74
2023/03/08 00:44:33;;;;;;;7.97;5.22;;;;;;;6.69;100.00;99530.59;5028056;28;20524;-75
2023/03/08 00:46:58;;;;;;;9.02;5.90;;;;;;;7.07;100.00;99544.13;5012596;28;20038;-74
2023/03/08 00:49:24;;;;;;;8.30;5.85;;;;;;;6.89;100.00;99494.81;5012739;28;20582;-74
2023/03/08 00:51:49;;;;;;;6.95;5.05;;;;;;;7.35;100.00;99530.03;5012751;28;20485;-75
2023/03/08 00:54:15;;;;;;;7.68;5.30;;;;;;;7.36;100.00;99529.16;5012633;28;20120;-74
2023/03/08 00:56:40;;;;;;;7.95;5.55;;;;;;;7.41;100.00;99529.88;5011997;28;20036;-75
2023/03/08 00:59:06;;;;;;;9.63;5.57;;;;;;;7.36;100.00;99542.66;5012875;28;20493;-74
2023/03/08 01:01:32;;;;;;;8.98;5.00;;;;;;;6.91;100.00;99433.28;5012082;28;20042;-74
2023/03/08 01:03:58;;;;;;;7.65;5.50;;;;;;;6.84;100.00;99477.22;5012115;28;20034;-74
2023/03/08 01:06:23;;;;;;;6.78;5.30;;;;;;;7.24;100.00;99530.28;5027972;28;20025;-74
2023/03/08 01:08:49;;;;;;;8.07;5.50;;;;;;;7.13;100.00;99480.81;5011502;28;20393;-74
2023/03/08 01:11:20;;;;;;;7.47;5.32;;;;;;;6.79;100.00;99519.41;5012492;28;20041;-75
2023/03/08 01:13:54;;;;;;;8.20;5.80;;;;;;;6.53;100.00;99430.75;5012700;28;20542;-74
2023/03/08 01:16:23;;;;;;;8.30;5.55;;;;;;;7.38;100.00;99486.97;5012822;28;20272;-74
2023/03/08 01:18:48;;;;;;;8.25;5.47;;;;;;;7.53;100.00;99522.00;5012573;28;20492;-74
2023/03/08 01:21:14;;;;;;;9.13;5.97;;;;;;;7.43;100.00;99520.56;5011723;28;20034;-74
2023/03/08 01:23:40;;;;;;;9.63;5.85;;;;;;;7.30;100.00;99521.72;5012205;28;20042;-74
2023/03/08 01:26:10;;;;;;;7.95;6.13;;;;;;;6.75;100.00;99461.44;5012193;28;20041;-74
2023/03/08 01:28:36;;;;;;;10.43;5.72;;;;;;;7.01;100.00;99530.75;5012129;28;20041;-74
2023/03/08 01:31:11;;;;;;;10.82;6.05;;;;;;;6.81;100.00;99535.38;5012307;28;20033;-73
2023/03/08 01:33:38;;;;;;;8.90;6.22;;;;;;;6.46;100.00;99530.19;5012214;28;20088;-73
2023/03/08 01:36:04;;;;;;;7.72;6.40;;;;;;;6.74;100.00;99536.38;5011134;28;20096;-73
2023/03/08 01:38:30;;;;;;;10.35;7.30;;;;;;;6.32;100.00;99481.66;5020595;28;20026;-73
2023/03/08 01:41:01;;;;;;;12.40;7.15;;;;;;;6.31;100.00;99492.63;5031772;28;20538;-73
2023/03/08 01:43:31;;;;;;;8.18;6.80;;;;;;;6.62;100.00;99536.59;5031382;28;20483;-74
2023/03/08 01:46:21;;;;;;;9.00;7.20;;;;;;;6.27;100.00;99538.97;5030577;28;20041;-75
2023/03/08 01:49:07;;;;;;;9.52;7.10;;;;;;;6.14;100.00;99532.44;5031895;28;20052;-74
2023/03/08 01:51:45;;;;;;;8.88;6.88;;;;;;;6.15;100.00;99536.66;5031347;28;20032;-74
2023/03/08 01:54:27;;;;;;;10.55;7.20;;;;;;;5.77;100.00;99475.91;5031791;28;20029;-74
2023/03/08 01:57:00;;;;;;;7.70;6.90;;;;;;;5.57;100.00;99463.63;5030538;28;20029;-74
2023/03/08 01:59:26;;;;;;;8.77;6.88;;;;;;;6.11;100.00;99519.91;5029595;28;20033;-74
2023/03/08 02:01:52;;;;;;;8.18;6.30;;;;;;;5.90;100.00;99495.88;5029785;28;20515;-73
2023/03/08 02:04:18;;;;;;;8.73;6.88;;;;;;;5.96;100.00;99475.59;5030654;28;20029;-73
2023/03/08 02:06:44;;;;;;;8.27;7.05;;;;;;;6.22;100.00;99525.56;5030849;28;20042;-73
2023/03/08 02:09:10;;;;;;;9.32;7.30;;;;;;;5.55;100.00;99474.56;5031816;28;20769;-73
2023/03/08 02:11:38;;;;;;;10.73;7.40;;;;;;;5.91;100.00;99534.53;5031283;28;20026;-73
2023/03/08 02:14:04;;;;;;;11.30;7.70;;;;;;;5.82;100.00;99472.44;5032408;28;20509;-73
2023/03/08 02:16:30;;;;;;;11.50;8.07;;;;;;;5.76;100.00;99507.03;5035250;28;20041;-73
2023/03/08 02:18:59;;;;;;;10.45;7.93;;;;;;;5.90;100.00;99505.16;5035735;28;20067;-73
2023/03/08 02:21:26;;;;;;;8.95;7.45;;;;;;;5.61;100.00;99482.03;5034582;28;20038;-73
2023/03/08 02:23:51;;;;;;;11.38;8.00;;;;;;;6.03;100.00;99524.25;5034244;28;20030;-73
2023/03/08 02:26:17;;;;;;;9.70;7.75;;;;;;;5.96;100.00;99523.50;5035505;28;20045;-74
2023/03/08 02:28:43;;;;;;;8.73;7.78;;;;;;;5.91;100.00;99482.41;5035240;28;20034;-73
2023/03/08 02:31:09;;;;;;;14.25;7.90;;;;;;;5.42;100.00;99445.41;5035420;28;20067;-73
2023/03/08 02:33:34;;;;;;;11.65;7.68;;;;;;;5.98;100.00;99490.72;5033873;28;20397;-73
2023/03/08 02:36:01;;;;;;;9.00;7.45;;;;;;;5.56;100.00;99481.28;5033434;28;20033;-73
2023/03/08 02:38:27;;;;;;;10.85;7.65;;;;;;;5.79;100.00;99532.19;5034972;28;20064;-73
2023/03/08 02:40:52;;;;;;;10.38;7.70;;;;;;;6.11;100.00;99547.66;5035220;28;20108;-73
2023/03/08 02:43:18;;;;;;;8.90;6.97;;;;;;;5.95;100.00;99536.16;5034037;28;20129;-73
2023/03/08 02:45:44;;;;;;;9.57;7.05;;;;;;;6.20;100.00;99534.06;5033713;28;20037;-73
2023/03/08 02:48:09;;;;;;;10.13;6.90;;;;;;;6.38;100.00;99551.41;5034795;28;20060;-73
2023/03/08 02:50:35;;;;;;;9.90;7.05;;;;;;;5.89;100.00;99518.59;5033233;28;20029;-73
2023/03/08 02:53:01;;;;;;;11.82;7.35;;;;;;;5.96;100.00;99502.53;5034820;28;20061;-73
2023/03/08 02:55:27;;;;;;;12.98;7.10;;;;;;;5.18;100.00;99492.78;5033654;28;20112;-73
2023/03/08 02:57:52;;;;;;;10.10;6.97;;;;;;;5.61;100.00;99489.59;5034970;28;20120;-73
2023/03/08 03:00:18;;;;;;;10.02;6.78;;;;;;;5.52;100.00;99498.16;5034274;28;20435;-73
2023/03/08 03:02:43;;;;;;;10.15;6.82;;;;;;;5.38;100.00;99457.22;5046166;28;20021;-73
2023/03/08 03:05:10;;;;;;;11.35;6.50;;;;;;;5.92;100.00;99547.13;5036525;28;20162;-74
2023/03/08 03:07:41;;;;;;;8.52;6.20;;;;;;;5.96;100.00;99541.16;5034685;28;20060;-73
2023/03/08 03:10:11;;;;;;;8.95;6.03;;;;;;;5.50;100.00;99572.13;5034865;28;20026;-74
2023/03/08 03:12:37;;;;;;;10.30;7.68;;;;;;;5.47;100.00;99494.88;5034248;28;20041;-74
2023/03/08 03:15:04;;;;;;;7.85;6.18;;;;;;;5.83;100.00;99562.41;5032893;28;20423;-73
2023/03/08 03:17:30;;;;;;;9.20;6.88;;;;;;;5.75;100.00;99533.09;5033155;28;20037;-73
2023/03/08 03:19:56;;;;;;;9.60;6.53;;;;;;;5.92;100.00;99549.63;5033240;28;20037;-73
2023/03/08 03:22:21;;;;;;;9.02;6.53;;;;;;;5.35;100.00;99466.53;5032767;28;20041;-73
2023/03/08 03:24:49;;;;;;;14.50;8.23;;;;;;;5.36;100.00;99514.38;5033856;28;20022;-73
2023/03/08 03:27:15;;;;;;;13.60;8.82;;;;;;;5.51;100.00;99506.56;5032333;28;20037;-73
2023/03/08 03:29:41;;;;;;;16.15;9.13;;;;;;;5.34;100.00;99469.88;5033638;28;20419;-73
2023/03/08 03:32:07;;;;;;;11.10;8.05;;;;;;;5.58;100.00;99507.31;5033968;28;20037;-74
2023/03/08 03:34:32;;;;;;;13.68;8.10;;;;;;;5.51;100.00;99483.88;5033871;28;20044;-73
2023/03/08 03:36:57;;;;;;;12.70;7.50;;;;;;;5.60;100.00;99515.69;5033120;28;20037;-73
2023/03/08 03:39:23;;;;;;;14.43;9.02;;;;;;;6.10;100.00;99559.44;5033684;28;20482;-74
2023/03/08 03:41:48;;;;;;;13.10;8.85;;;;;;;5.88;100.00;99547.22;5033487;28;20412;-74
2023/03/08 03:44:14;;;;;;;11.68;9.18;;;;;;;5.63;100.00;99506.38;5032432;28;20053;-75
2023/03/08 03:46:39;;;;;;;16.65;11.73;;;;;;;6.20;100.00;99557.56;5034216;28;20381;-75
2023/03/08 03:49:04;;;;;;;34.70;19.75;;;;;;;6.11;100.00;99555.22;5033766;28;20536;-74
2023/03/08 03:51:30;;;;;;;35.05;17.60;;;;;;;5.57;100.00;99503.94;5032840;28;20036;-74
2023/03/08 03:53:57;;;;;;;18.55;12.52;;;;;;;5.86;100.00;99543.88;5033744;28;20131;-73
2023/03/08 03:56:25;;;;;;;17.63;12.07;;;;;;;6.20;100.00;99560.09;5032242;28;20064;-74
2023/03/08 03:58:52;;;;;;;14.38;10.20;;;;;;;5.89;100.00;99524.47;5033998;28;20030;-74
2023/03/08 04:01:26;;;;;;;15.20;10.20;;;;;;;5.99;100.00;99578.13;5032940;28;20511;-74
2023/03/08 04:03:53;;;;;;;14.13;9.85;;;;;;;5.41;100.00;99486.59;5033516;28;20041;-75
2023/03/08 04:06:31;;;;;;;16.95;10.05;;;;;;;5.42;100.00;99523.53;5033694;28;20091;-74
2023/03/08 04:09:00;;;;;;;14.27;10.60;;;;;;;5.45;100.00;99506.66;5033164;28;20068;-74
2023/03/08 04:11:30;;;;;;;14.68;9.90;;;;;;;5.84;100.00;99583.44;5033507;28;20045;-75
2023/03/08 04:13:56;;;;;;;14.88;9.75;;;;;;;5.66;100.00;99526.53;5033146;28;20507;-73
2023/03/08 04:16:25;;;;;;;16.58;11.32;;;;;;;5.88;100.00;99585.03;5033097;28;20026;-73
2023/03/08 04:18:56;;;;;;;18.33;12.18;;;;;;;5.27;100.00;99535.47;5031053;28;20033;-74
2023/03/08 04:21:22;;;;;;;16.80;11.82;;;;;;;5.54;100.00;99586.34;5027894;28;20101;-74
2023/03/08 04:23:48;;;;;;;17.75;12.32;;;;;;;5.90;100.00;99583.34;5015269;28;20386;-74
2023/03/08 04:26:14;;;;;;;22.17;14.80;;;;;;;5.51;100.00;99531.78;5033406;28;20091;-75
2023/03/08 04:28:40;;;;;;;19.85;14.82;;;;;;;5.60;100.00;99525.78;5032861;28;20717;-74
2023/03/08 04:31:27;;;;;;;21.20;14.43;;;;;;;5.92;100.00;99576.56;5032288;28;20021;-73
2023/03/08 04:33:53;;;;;;;20.13;12.63;;;;;;;5.90;100.00;99583.34;5027620;28;20032;-73
2023/03/08 04:36:20;;;;;;;23.90;13.95;;;;;;;5.76;100.00;99578.47;5035121;28;20025;-73
2023/03/08 04:38:47;;;;;;;16.80;10.48;;;;;;;7.26;100.00;99536.13;5033471;28;20091;-74
2023/03/08 04:41:14;;;;;;;13.60;10.63;;;;;;;7.14;100.00;99522.91;5033316;28;20026;-72
2023/03/08 04:43:44;;;;;;;20.73;15.02;;;;;;;5.79;100.00;99582.63;5030814;28;20038;-74
2023/03/08 04:46:10;;;;;;;27.67;17.25;;;;;;;5.31;100.00;99523.66;5027307;28;20038;-76
2023/03/08 04:48:36;;;;;;;30.50;18.70;;;;;;;5.36;100.00;99579.88;5026135;28;20542;-74
2023/03/08 04:51:03;;;;;;;26.60;18.25;;;;;;;5.44;100.00;99593.22;5033019;28;20034;-73
2023/03/08 04:53:30;;;;;;;59.70;30.13;;;;;;;5.82;100.00;99596.00;5032343;28;20507;-74
2023/03/08 04:55:56;;;;;;;28.50;18.55;;;;;;;5.46;100.00;99527.66;5032630;28;20028;-75
2023/03/08 04:58:21;;;;;;;29.58;17.77;;;;;;;5.37;100.00;99547.97;5032497;28;20021;-74
2023/03/08 05:00:47;;;;;;;30.27;20.55;;;;;;;5.53;100.00;99594.75;5032483;28;20040;-73
2023/03/08 05:03:13;;;;;;;28.45;19.52;;;;;;;5.72;100.00;99544.06;5032419;28;20036;-73
2023/03/08 05:05:50;;;;;;;31.55;19.92;;;;;;;6.26;100.00;99522.13;5031423;28;20072;-76
2023/03/08 05:08:16;;;;;;;25.92;19.17;;;;;;;8.32;100.00;99521.75;5031502;28;20072;-77
2023/03/08 05:10:48;;;;;;;31.42;20.17;;;;;;;7.00;100.00;99597.31;5032924;28;20064;-76
2023/03/08 05:13:14;;;;;;;26.42;18.80;;;;;;;7.84;100.00;99603.94;5032297;28;20041;-75
2023/03/08 05:15:42;;;;;;;26.00;17.85;;;;;;;9.60;100.00;99591.59;5030204;28;20083;-75
2023/03/08 05:18:08;;;;;;;26.05;17.67;;;;;;;10.12;100.00;99590.00;5031269;28;20091;-75
2023/03/08 05:20:33;;;;;;;25.52;15.88;;;;;;;10.66;100.00;99584.75;5032094;28;20034;-73
2023/03/08 05:22:59;;;;;;;22.67;16.80;;;;;;;10.57;100.00;99592.69;5030915;28;20033;-74
2023/03/08 05:25:24;;;;;;;22.45;15.65;;;;;;;11.96;100.00;99591.72;5030480;28;20111;-72
2023/03/08 05:27:49;;;;;;;25.65;17.17;;;;;;;12.04;100.00;99599.88;5031331;28;20033;-74
2023/03/08 05:30:15;;;;;;;35.85;18.50;;;;;;;11.98;100.00;99569.56;5031379;28;20033;-72
2023/03/08 05:32:40;;;;;;;28.33;18.80;;;;;;;11.87;100.00;99571.72;5030627;28;20420;-75
2023/03/08 05:35:07;;;;;;;32.70;19.38;;;;;;;12.39;100.00;99605.28;5030602;28;20121;-75
2023/03/08 05:37:33;;;;;;;28.52;21.35;;;;;;;12.88;100.00;99549.56;5031181;28;20033;-73
2023/03/08 05:39:58;;;;;;;28.88;21.40;;;;;;;12.95;100.00;99616.47;5019889;28;20036;-75
2023/03/08 05:42:26;;;;;;;43.65;24.77;;;;;;;11.83;100.00;99523.50;5019859;28;20509;-69
2023/03/08 05:44:51;;;;;;;30.83;20.10;;;;;;;12.70;100.00;99610.72;5009599;28;20037;-73
2023/03/08 05:47:17;;;;;;;34.33;20.40;;;;;;;11.00;100.00;99559.78;5010796;28;20118;-73
2023/03/08 05:49:42;;;;;;;43.63;26.80;;;;;;;8.99;100.00;99566.38;5010352;28;20111;-74
2023/03/08 05:52:08;;;;;;;48.08;29.92;;;;;;;9.12;100.00;99627.69;5009855;28;20413;-74
2023/03/08 05:54:33;;;;;;;46.80;35.58;;;;;;;8.83;100.00;99570.19;5011206;28;20033;-74
2023/03/08 05:57:00;;;;;;;42.65;30.63;;;;;;;9.11;100.00;99631.91;5010791;28;20037;-73
2023/03/08 05:59:26;;;;;;;33.15;24.38;;;;;;;9.58;100.00;99633.94;5011452;28;20026;-73
2023/03/08 06:01:51;;;;;;;27.63;18.30;;;;;;;9.14;100.00;99631.84;5011657;28;20034;-74
2023/03/08 06:04:16;;;;;;;21.48;14.32;;;;;;;9.30;100.00;99635.63;5012292;28;20030;-75
2023/03/08 06:06:42;;;;;;;22.75;14.48;;;;;;;8.82;100.00;99633.56;5010543;28;20473;-74
2023/03/08 06:09:07;;;;;;;52.80;30.45;;;;;;;8.52;100.00;99579.47;5009969;28;20112;-74
2023/03/08 06:11:33;;;;;;;53.05;30.17;;;;;;;8.57;100.00;99583.56;5010400;28;20512;-74
2023/03/08 06:13:58;;;;;;;35.15;14.52;;;;;;;9.25;100.00;99637.44;5011398;28;20030;-74
2023/03/08 06:16:23;;;;;;;33.67;14.50;;;;;;;8.86;100.00;99587.84;5010486;28;20022;-74
2023/03/08 06:18:49;;;;;;;31.23;14.82;;;;;;;9.83;100.00;99633.19;5010496;28;20042;-74
2023/03/08 06:21:17;;;;;;;36.58;15.68;;;;;;;9.74;100.00;99647.00;5011384;28;20076;-73
2023/03/08 06:23:44;;;;;;;33.85;15.07;;;;;;;9.19;100.00;99660.44;5010219;28;20057;-74
2023/03/08 06:26:10;;;;;;;29.95;15.13;;;;;;;9.72;100.00;99612.41;5010322;28;20034;-75
2023/03/08 06:28:36;;;;;;;26.48;16.08;;;;;;;9.78;100.00;99622.34;5010233;28;20045;-74
2023/03/08 06:31:02;;;;;;;35.13;17.30;;;;;;;9.96;100.00;99658.19;5015428;28;20029;-75
2023/03/08 06:33:30;;;;;;;34.25;17.77;;;;;;;9.72;100.00;99641.16;5029719;28;20030;-74
2023/03/08 06:36:03;;;;;;;34.85;18.13;;;;;;;10.25;100.00;99660.66;5030344;28;20033;-75
2023/03/08 06:38:31;;;;;;;28.92;16.77;;;;;;;10.20;100.00;99616.78;5030118;28;20040;-75
2023/03/08 06:40:57;;;;;;;33.72;17.35;;;;;;;10.71;100.00;99598.97;5031282;28;20148;-75
2023/03/08 06:43:22;;;;;;;30.05;17.15;;;;;;;10.86;100.00;99610.31;5031520;28;20385;-75
2023/03/08 06:45:48;;;;;;;28.33;15.43;;;;;;;11.43;100.00;99656.56;5031471;28;20080;-75
2023/03/08 06:48:14;;;;;;;31.52;15.32;;;;;;;11.37;100.00;99625.44;5030069;28;20029;-74
2023/03/08 06:50:39;;;;;;;27.13;14.45;;;;;;;11.88;100.00;99672.72;5029477;28;20033;-75
2023/03/08 06:53:06;;;;;;;29.00;14.40;;;;;;;11.80;100.00;99659.44;5029475;28;20484;-75
2023/03/08 06:55:34;;;;;;;29.05;14.13;;;;;;;11.11;100.00;99595.84;5029982;28;20048;-74
2023/03/08 06:57:59;;;;;;;27.75;13.85;;;;;;;11.75;100.00;99675.75;5030899;28;20063;-74
2023/03/08 07:00:25;;;;;;;28.20;11.82;;;;;;;11.07;100.00;99645.19;5032194;28;20128;-75
2023/03/08 07:02:50;;;;;;;19.88;10.95;;;;;;;12.08;100.00;99675.31;5034790;28;20480;-75
2023/03/08 07:05:16;;;;;;;18.95;10.50;;;;;;;12.43;100.00;99688.38;5034277;28;20040;-74
2023/03/08 07:07:42;;;;;;;19.50;9.30;;;;;;;12.38;100.00;99687.75;5032959;28;20395;-74
2023/03/08 07:10:15;;;;;;;17.40;9.70;;;;;;;12.59;100.00;99685.16;5033471;28;20033;-76
2023/03/08 07:12:45;;;;;;;13.15;9.20;;;;;;;11.34;100.00;99650.13;5033759;28;20036;-75
2023/03/08 07:15:13;;;;;;;12.82;8.20;;;;;;;12.05;100.00;99637.22;5033069;28;20037;-75
2023/03/08 07:17:39;;;;;;;10.98;7.88;;;;;;;12.17;100.00;99685.16;5035070;28;20029;-75
2023/03/08 07:20:06;;;;;;;13.02;7.75;;;;;;;12.60;100.00;99650.25;5033152;28;20485;-75
2023/03/08 07:22:32;;;;;;;11.80;9.23;;;;;;;12.44;100.00;99637.31;5033092;28;20065;-75
2023/03/08 07:24:57;;;;;;;12.15;7.72;;;;;;;12.59;100.00;99626.50;5034008;28;20473;-75
2023/03/08 07:27:23;;;;;;;13.50;8.57;;;;;;;11.94;100.00;99633.44;5034169;28;20443;-73
2023/03/08 07:29:49;;;;;;;14.77;7.07;;;;;;;12.81;100.00;99685.94;5032585;28;20033;-73
2023/03/08 07:32:14;;;;;;;12.32;7.55;;;;;;;13.24;100.00;99691.78;5032368;28;20507;-74
2023/03/08 07:34:40;;;;;;;9.35;6.75;;;;;;;13.55;100.00;99692.09;5032989;28;20033;-74
2023/03/08 07:37:13;;;;;;;10.52;6.65;;;;;;;13.07;100.00;99641.47;5033579;28;20037;-74
2023/03/08 07:39:38;;;;;;;13.57;11.35;;;;;;;11.43;100.00;99656.56;5032883;28;20037;-74
2023/03/08 07:42:04;;;;;;;12.57;6.20;;;;;;;12.23;100.00;99693.44;5033852;28;20041;-75
2023/03/08 07:44:30;;;;;;;15.57;12.07;;;;;;;13.06;100.00;99693.41;5034031;28;20521;-76
2023/03/08 07:46:55;;;;;;;26.10;15.30;;;;;;;13.50;100.00;99699.97;5034021;28;20076;-75
2023/03/08 07:49:21;;;;;;;16.23;8.10;;;;;;;13.28;100.00;99688.19;5032584;28;20030;-74
2023/03/08 07:51:48;;;;;;;11.18;6.50;;;;;;;13.70;100.00;99689.69;5032758;28;20034;-75
2023/03/08 07:54:14;;;;;;;9.95;6.30;;;;;;;12.54;100.00;99605.47;5033162;28;20589;-76
2023/03/08 07:56:39;;;;;;;13.13;6.20;;;;;;;14.22;100.00;99631.03;5033650;28;20069;-74
2023/03/08 07:59:04;;;;;;;10.65;6.70;;;;;;;14.39;100.00;99682.19;5031860;28;20063;-75
2023/03/08 08:01:31;;;;;;;11.40;6.57;;;;;;;13.41;100.00;99689.34;5032265;28;20037;-75
2023/03/08 08:03:59;;;;;;;10.93;6.10;;;;;;;12.50;100.00;99637.06;5033623;28;20488;-75
2023/03/08 08:06:25;;;;;;;10.23;6.15;;;;;;;13.41;100.00;99648.47;5033632;28;20040;-76
2023/03/08 08:08:50;;;;;;;17.40;8.60;;;;;;;14.26;100.00;99688.78;5032181;28;20025;-74
2023/03/08 08:11:18;;;;;;;11.27;6.20;;;;;;;13.77;100.00;99639.13;5032438;28;20534;-76
2023/03/08 08:13:45;;;;;;;13.88;6.53;;;;;;;14.81;100.00;99682.66;5032186;28;20030;-75
2023/03/08 08:16:12;;;;;;;12.48;5.85;;;;;;;14.69;100.00;99660.25;5032038;28;20029;-75
2023/03/08 08:18:38;;;;;;;14.32;8.63;;;;;;;15.29;100.00;99680.16;5033545;28;20053;-74
2023/03/08 08:21:07;;;;;;;17.38;8.80;;;;;;;14.19;100.00;99601.31;5032895;28;20057;-73
2023/03/08 08:23:33;;;;;;;9.88;5.15;;;;;;;14.30;100.00;99691.13;5032043;28;20124;-74
2023/03/08 08:25:59;;;;;;;12.50;7.45;;;;;;;15.15;100.00;99685.16;5033274;28;20094;-74
2023/03/08 08:28:26;;;;;;;11.23;6.38;;;;;;;15.04;100.00;99605.50;5031524;28;20033;-74
2023/03/08 08:30:56;;;;;;;10.50;5.78;;;;;;;14.62;100.00;99630.72;5032742;28;20029;-75
2023/03/08 08:33:22;;;;;;;9.10;5.82;;;;;;;15.55;100.00;99686.50;5031431;28;20026;-75
2023/03/08 08:35:47;;;;;;;10.55;7.45;;;;;;;15.40;100.00;99680.44;5032882;28;20087;-75
2023/03/08 08:38:12;;;;;;;9.80;6.30;;;;;;;14.28;100.00;99638.44;5032967;28;20021;-74
2023/03/08 08:40:38;;;;;;;12.98;6.50;;;;;;;14.23;100.00;99633.50;5031606;28;20669;-74
2023/03/08 08:43:03;;;;;;;10.98;6.22;;;;;;;15.20;100.00;99646.50;5032178;28;20034;-75
2023/03/08 08:45:29;;;;;;;11.32;5.88;;;;;;;14.79;100.00;99676.78;5030452;28;20048;-75
2023/03/08 08:47:54;;;;;;;11.40;6.50;;;;;;;14.49;100.00;99633.09;5032476;28;20088;-74
2023/03/08 08:50:20;;;;;;;8.85;5.57;;;;;;;15.55;100.00;99683.94;5030501;28;20541;-74
2023/03/08 08:52:45;;;;;;;11.00;5.85;;;;;;;15.37;100.00;99683.13;5031855;28;20115;-73
2023/03/08 08:55:10;;;;;;;11.18;6.43;;;;;;;14.78;100.00;99629.06;5031036;28;20415;-75
2023/03/08 08:57:36;;;;;;;8.38;5.63;;;;;;;14.23;100.00;99688.91;5031196;28;20111;-74
2023/03/08 09:00:04;;;;;;;8.82;5.18;;;;;;;14.69;100.00;99688.38;5031136;28;20026;-74
2023/03/08 09:02:29;;;;;;;6.95;4.75;;;;;;;15.10;100.00;99642.78;5031933;28;20032;-74
2023/03/08 09:04:55;;;;;;;8.20;5.30;;;;;;;15.46;100.00;99677.59;5030806;28;20026;-75
2023/03/08 09:07:20;;;;;;;9.05;5.80;;;;;;;15.53;100.00;99622.53;5030903;28;20061;-75
2023/03/08 09:09:46;;;;;;;9.75;5.30;;;;;;;16.18;100.00;99671.94;5031582;28;20029;-74
2023/03/08 09:12:11;;;;;;;10.02;6.05;;;;;;;15.83;100.00;99640.53;5030951;28;20535;-73
2023/03/08 09:14:37;;;;;;;7.82;6.20;;;;;;;15.24;100.00;99628.34;5031954;28;20037;-75
2023/03/08 09:17:05;;;;;;;8.05;5.28;;;;;;;15.73;100.00;99667.56;5031190;28;20091;-74
2023/03/08 09:19:31;;;;;;;8.70;5.75;;;;;;;15.30;100.00;99648.53;5032237;28;20147;-75
2023/03/08 09:21:56;;;;;;;11.07;7.38;;;;;;;15.66;100.00;99675.69;5030687;28;20033;-76
2023/03/08 09:24:21;;;;;;;9.20;5.78;;;;;;;15.98;100.00;99660.22;5029727;28;20087;-75
2023/03/08 09:26:47;;;;;;;9.07;5.85;;;;;;;15.52;100.00;99673.88;5031116;28;20412;-76
2023/03/08 09:29:13;;;;;;;8.93;5.75;;;;;;;15.45;100.00;99624.66;5030538;28;20029;-75
2023/03/08 09:31:41;;;;;;;13.68;6.38;;;;;;;15.11;100.00;99621.41;5030601;28;20037;-75
2023/03/08 09:34:09;;;;;;;9.60;6.47;;;;;;;15.56;100.00;99624.94;5030558;28;20026;-75
2023/03/08 09:36:40;;;;;;;12.57;6.22;;;;;;;16.96;100.00;99672.53;5030842;28;20068;-75
2023/03/08 09:39:10;;;;;;;;;;;;;;;16.42;100.00;99673.09;5030840;28;20026;-75
2023/03/08 09:41:49;;;;;;;8.65;6.38;;;;;;;16.40;100.00;99664.69;5031625;28;19917;-75
2023/03/08 09:44:42;;;;;;;12.50;7.22;;;;;;;16.53;100.00;99670.81;5031539;28;20126;-76
2023/03/08 09:47:20;;;;;;;10.30;6.75;;;;;;;16.21;100.00;99615.31;5031658;28;20042;-75
2023/03/08 09:49:50;;;;;;;9.98;5.88;;;;;;;14.99;100.00;99675.78;5031581;28;20040;-75
2023/03/08 10:19:36;;;;;;;8.02;6.28;;;;;;;16.22;100.00;99604.97;5024326;28;20156;-76
2023/03/08 10:22:08;;;;;;;9.82;5.97;;;;;;;16.87;100.00;99652.53;5040930;28;20040;-74
2023/03/08 10:24:42;;;;;;;8.50;6.22;;;;;;;18.16;100.00;99651.31;5046676;28;20020;-77
2023/03/08 10:27:30;;;;;;;8.80;5.97;;;;;;;17.37;100.00;99658.97;5046950;28;20037;-75
2023/03/08 10:29:57;;;;;;;9.63;6.53;;;;;;;17.39;100.00;99655.34;5045322;28;20029;-76
2023/03/08 10:32:28;;;;;;;9.18;5.97;;;;;;;17.27;100.00;99662.06;5046311;28;20059;-74
2023/03/08 10:35:11;;;;;;;8.97;6.10;;;;;;;17.49;100.00;99658.25;5047553;28;20100;-76
2023/03/08 10:37:36;;;;;;;10.05;6.28;;;;;;;17.51;100.00;99646.94;5051765;28;20038;-80
2023/03/08 10:40:07;;;;;;;11.10;6.15;;;;;;;17.73;100.00;99603.53;5068083;28;20534;-75
2023/03/08 10:42:34;;;;;;;9.98;6.05;;;;;;;17.18;100.00;99631.81;5048199;28;20040;-75
2023/03/08 10:45:03;;;;;;;9.55;5.70;;;;;;;19.07;100.00;99610.97;5053346;28;20564;-76
2023/03/08 10:47:35;;;;;;;8.75;5.88;;;;;;;18.45;100.00;99630.63;5037450;28;20037;-72
2023/03/08 10:50:19;;;;;;;9.70;6.13;;;;;;;17.57;100.00;99572.00;5034700;28;20112;-75
2023/03/08 10:52:47;;;;;;;9.45;5.47;;;;;;;16.58;100.00;99568.69;5034410;28;20124;-77
2023/03/08 10:55:15;;;;;;;8.75;5.35;;;;;;;17.71;100.00;99635.41;5035479;28;20029;-78
2023/03/08 10:57:48;;;;;;;8.05;4.78;;;;;;;18.32;100.00;99573.97;5035579;28;20095;-77
2023/03/08 11:00:36;;;;;;;11.40;5.55;;;;;;;17.86;100.00;99619.84;5035480;28;20499;-77
2023/03/08 11:03:24;;;;;;;7.35;5.45;;;;;;;18.93;100.00;99615.31;5035521;28;20052;-78
2023/03/08 11:06:11;;;;;;;10.63;5.35;;;;;;;18.30;100.00;99618.75;5034779;28;20037;-77
2023/03/08 11:08:55;;;;;;;7.72;4.80;;;;;;;16.77;100.00;99581.28;5035687;28;20033;-78
2023/03/08 11:11:23;;;;;;;8.35;4.82;;;;;;;17.63;100.00;99575.94;5035072;28;20047;-78
2023/03/08 11:13:50;;;;;;;7.82;4.90;;;;;;;18.71;100.00;99607.38;5035109;28;20033;-77
2023/03/08 11:16:53;;;;;;;6.75;4.65;;;;;;;18.87;100.00;99609.75;5034120;28;20033;-77
2023/03/08 11:19:52;;;;;;;9.13;5.10;;;;;;;18.38;100.00;99614.72;5035013;28;20050;-77
2023/03/08 11:22:42;;;;;;;6.07;4.18;;;;;;;18.21;100.00;99599.56;5050722;28;20034;-78
2023/03/08 11:25:20;;;;;;;5.43;3.97;;;;;;;18.09;100.00;99580.59;5033966;28;20041;-76
2023/03/08 11:27:55;;;;;;;7.03;5.30;;;;;;;17.95;100.00;99539.50;5048892;28;20075;-76
2023/03/08 11:30:27;;;;;;;12.27;5.72;;;;;;;18.74;100.00;99599.44;5050326;28;20033;-76
2023/03/08 11:33:40;;;;;;;9.30;5.70;;;;;;;18.90;100.00;99571.72;5033937;28;20041;-76
2023/03/08 11:36:15;;;;;;;5.18;4.65;;;;;;;17.52;100.00;99575.78;5034626;28;20517;-76
2023/03/08 11:38:53;;;;;;;6.70;5.47;;;;;;;18.12;100.00;99561.59;5050580;28;20025;-77
2023/03/08 11:41:25;;;;;;;7.70;5.00;;;;;;;18.33;100.00;99561.91;5034464;28;20037;-78
2023/03/08 11:44:27;;;;;;;8.88;5.53;;;;;;;18.01;100.00;99571.72;5034797;28;20070;-79
2023/03/08 11:47:07;;;;;;;7.32;4.70;;;;;;;18.61;100.00;99577.19;5032351;28;20033;-77
2023/03/08 11:49:39;;;;;;;10.82;5.38;;;;;;;18.54;100.00;99570.81;5050202;28;20033;-77
2023/03/08 11:52:33;;;;;;;6.35;4.82;;;;;;;17.88;100.00;99571.72;5034713;28;20026;-79
2023/03/08 11:55:10;;;;;;;7.32;5.00;;;;;;;18.77;100.00;99568.34;5034512;28;20462;-78